Winchester, Arkansas
Current Conditions -  °F | °C
As of 6:53 AM on Saturday 25 Oct 2014 (Local Time) from KLLQ Reporting Station
Clear Clear  
Wind Chill: 57°   Ceiling: Unl
Heat Index: 57°   Visibility: 10mi
Dew Point: 53°   Wind: 6mph
Humidity: 87%   Direction: 270°W
Pressure: 30.12"   Gusts: NA
Location:  33.77°N, 91.47°W
Report Text: KLLQ 251153Z AUTO 27005KT 10SM CLR 14/12 A3012 RMK AO2 SLP198 T01390117 10150 20117 51006
Loading
Personal Weather Stations






























Interactive Weather Map
Tropical Storm Tracking
New forecast layout! Learn more

10-Day Weather Forecast

Advertisements
Track Severe Weather on mobile